This is the latest recevied weather packets stored in our database for station/object OH6HPS. If no packets are shown the sender has not sent any weather packets the latest 1 day(s).
| Time | Temp. | Humidity | Pressure | Rain* | Wind** | Luminosity | Snow |
|---|---|---|---|---|---|---|---|
| 1778001906 | 7.78° C | 55% | 1006.3 hPa | 0 mm | 0.89 m/s, 228° | 48 W/m² | - |
| 1778001305 | 7.78° C | 53% | 1006.3 hPa | 0 mm | 1.34 m/s, 203° | 39 W/m² | - |
| 1778000704 | 7.78° C | 52% | 1006.3 hPa | 0 mm | 1.34 m/s, 221° | 35 W/m² | - |
| 1778000104 | 7.78° C | 51% | 1006.1 hPa | 0 mm | 1.79 m/s, 228° | 35 W/m² | - |
| 1777999505 | 8.33° C | 50% | 1006.1 hPa | 0 mm | 2.68 m/s, 203° | 30 W/m² | - |
| 1777998904 | 8.89° C | 48% | 1005.9 hPa | 0 mm | 1.79 m/s, 227° | 37 W/m² | - |
| 1777998304 | 9.44° C | 48% | 1006 hPa | 0 mm | 2.68 m/s, 230° | 92 W/m² | - |
| 1777997704 | 10° C | 46% | 1005.9 hPa | 0 mm | 2.24 m/s, 221° | 202 W/m² | - |
| 1777997103 | 10.56° C | 46% | 1005.9 hPa | 0 mm | 2.68 m/s, 234° | 239 W/m² | - |
| 1777996504 | 10° C | 47% | 1005.8 hPa | 0 mm | 1.79 m/s, 231° | 271 W/m² | - |
| 1777995904 | 10° C | 49% | 1005.6 hPa | 0 mm | 1.79 m/s, 244° | 306 W/m² | - |
| 1777995304 | 10.56° C | 45% | 1005.6 hPa | 0 mm | 2.68 m/s, 250° | 53 W/m² | - |
| 1777994704 | 10.56° C | 46% | 1005.5 hPa | 0 mm | 1.79 m/s, 240° | 334 W/m² | - |
| 1777994104 | 10.56° C | 47% | 1005.5 hPa | 0 mm | 1.79 m/s, 243° | 348 W/m² | - |
| 1777993504 | 10.56° C | 47% | 1005.5 hPa | 0 mm | 3.13 m/s, 247° | 368 W/m² | - |
| 1777992902 | 11.11° C | 46% | 1005.4 hPa | 0 mm | 3.13 m/s, 206° | 392 W/m² | - |
| 1777992303 | 10.56° C | 47% | 1005.4 hPa | 0 mm | 2.24 m/s, 212° | 424 W/m² | - |
| 1777991702 | 11.11° C | 45% | 1005.4 hPa | 0 mm | 3.13 m/s, 214° | 475 W/m² | - |
| 1777991104 | 11.11° C | 44% | 1005.4 hPa | 0 mm | 4.47 m/s, 199° | 470 W/m² | - |
| 1777990502 | 11.11° C | 44% | 1005.3 hPa | 0 mm | 3.13 m/s, 203° | 522 W/m² | - |
| 1777989915 | 11.11° C | 43% | 1005.2 hPa | 0 mm | 4.02 m/s, 261° | 515 W/m² | - |
| 1777989302 | 11.11° C | 45% | 1005.2 hPa | 0 mm | 3.13 m/s, 213° | 533 W/m² | - |
| 1777988703 | 10.56° C | 45% | 1005.2 hPa | 0 mm | 2.68 m/s, 210° | 568 W/m² | - |
| 1777988103 | 10° C | 49% | 1005.2 hPa | 0 mm | 3.58 m/s, 247° | 617 W/m² | - |
| 1777987503 | 10° C | 49% | 1005.1 hPa | 0 mm | 4.02 m/s, 204° | 95 W/m² | - |
* Rain latest hour (hover to see other rain measurements)
** Current wind speed in m/s (hover to see current wind gust speed)